Time;durP1;ratioP1;P1;durP2;ratioP2;P2;SDS_P1;SDS_P2;PMS_P1;PMS_P2;Temp;Humidity;BMP_temperature;BMP_pressure;BME280_temperature;BME280_humidity;BME280_pressure;Samples;Min_cycle;Max_cycle;Signal;HPM_P1;HPM_P2
2023/12/15 00:01:53;;;;;;;;;;;;;;;19.68;52.08;96787.81;618947;229;65506;-71
2023/12/15 00:04:21;;;;;;;;;;;;;;;19.66;52.07;96797.14;618975;229;65028;-72
2023/12/15 00:06:48;;;;;;;;;;;;;;;19.65;52.12;96804.31;618945;229;64730;-71
2023/12/15 00:09:16;;;;;;;;;;;;;;;19.67;52.17;96812.06;618934;229;66413;-71
2023/12/15 00:11:43;;;;;;;;;;;;;;;19.67;52.12;96820.89;618966;229;65185;-71
2023/12/15 00:14:11;;;;;;;;;;;;;;;19.66;52.23;96827.27;618952;229;64409;-71
2023/12/15 00:16:38;;;;;;;;;;;;;;;19.65;52.15;96836.31;618962;229;65420;-71
2023/12/15 00:19:06;;;;;;;;;;;;;;;19.67;52.12;96841.39;618939;229;63787;-71
2023/12/15 00:21:33;;;;;;;;;;;;;;;19.67;52.16;96846.72;618947;229;64601;-71
2023/12/15 00:24:02;;;;;;;;;;;;;;;19.69;52.19;96853.39;621096;227;65232;-71
2023/12/15 00:26:30;;;;;;;;;;;;;;;19.68;52.18;96845.67;624225;227;62399;-71
2023/12/15 00:28:57;;;;;;;;;;;;;;;19.67;52.17;96852.87;624190;227;62598;-71
2023/12/15 00:31:25;;;;;;;;;;;;;;;19.65;52.13;96846.17;624205;227;62673;-71
2023/12/15 00:33:52;;;;;;;;;;;;;;;19.66;52.14;96853.92;624171;227;65403;-71
2023/12/15 00:36:20;;;;;;;;;;;;;;;19.66;52.12;96859.25;624282;227;64592;-71
2023/12/15 00:38:47;;;;;;;;;;;;;;;19.65;52.20;96852.30;624155;227;65159;-72
2023/12/15 00:41:14;;;;;;;;;;;;;;;19.67;52.11;96844.87;624222;227;64716;-72
2023/12/15 00:43:42;;;;;;;;;;;;;;;19.70;52.12;96849.67;624212;227;65566;-71
2023/12/15 00:46:09;;;;;;;;;;;;;;;19.69;52.18;96848.05;624194;227;66070;-74
2023/12/15 00:48:37;;;;;;;;;;;;;;;19.68;52.11;96853.67;624258;227;62901;-74
2023/12/15 00:51:05;;;;;;;;;;;;;;;19.66;52.19;96858.46;624190;227;62432;-74
2023/12/15 00:53:33;;;;;;;;;;;;;;;19.68;52.19;96873.12;624189;227;65522;-72
2023/12/15 00:56:01;;;;;;;;;;;;;;;19.66;52.12;96880.58;624202;227;66164;-72
2023/12/15 00:58:29;;;;;;;;;;;;;;;19.68;52.17;96877.66;624156;227;62511;-71
2023/12/15 01:00:56;;;;;;;;;;;;;;;19.68;52.19;96878.46;624240;227;65680;-71
2023/12/15 01:03:24;;;;;;;;;;;;;;;19.69;52.19;96889.92;624193;227;65016;-71
2023/12/15 01:05:51;;;;;;;;;;;;;;;19.68;52.26;96902.45;624135;227;65512;-71
2023/12/15 01:08:18;;;;;;;;;;;;;;;19.67;52.23;96897.38;624190;227;63261;-71
2023/12/15 01:10:46;;;;;;;;;;;;;;;19.65;52.14;96873.63;624177;227;63045;-71
2023/12/15 01:13:13;;;;;;;;;;;;;;;19.68;52.25;96878.46;624202;227;64692;-71
2023/12/15 01:15:41;;;;;;;;;;;;;;;19.67;52.22;96889.38;624220;227;66398;-71
2023/12/15 01:18:08;;;;;;;;;;;;;;;19.70;52.26;96908.33;624160;227;65010;-71
2023/12/15 01:20:36;;;;;;;;;;;;;;;19.68;52.20;96926.45;624163;227;62432;-71
2023/12/15 01:23:04;;;;;;;;;;;;;;;19.67;52.27;96921.37;624090;227;63014;-71
2023/12/15 01:25:31;;;;;;;;;;;;;;;19.67;52.21;96918.70;624188;227;65079;-71
2023/12/15 01:27:59;;;;;;;;;;;;;;;19.70;52.14;96907.53;624202;227;64535;-71
2023/12/15 01:30:26;;;;;;;;;;;;;;;19.67;52.27;96903.53;624181;227;65433;-71
2023/12/15 01:32:54;;;;;;;;;;;;;;;19.68;52.17;96905.13;624175;227;64929;-71
2023/12/15 01:35:21;;;;;;;;;;;;;;;19.66;52.28;96901.12;624171;227;64553;-71
2023/12/15 01:37:49;;;;;;;;;;;;;;;19.66;52.21;96911.78;624193;227;63310;-71
2023/12/15 01:40:17;;;;;;;;;;;;;;;19.69;52.32;96909.38;624251;227;63658;-71
2023/12/15 01:42:44;;;;;;;;;;;;;;;19.69;52.27;96912.05;624142;227;62407;-71
2023/12/15 01:45:11;;;;;;;;;;;;;;;19.69;52.23;96920.04;624192;227;63180;-71
2023/12/15 01:47:40;;;;;;;;;;;;;;;19.66;52.30;96912.58;624179;227;65527;-71
2023/12/15 01:50:10;;;;;;;;;;;;;;;19.66;52.28;96904.58;624118;227;63466;-71
2023/12/15 01:52:37;;;;;;;;;;;;;;;19.67;52.25;96908.86;624240;227;65289;-71
2023/12/15 01:55:05;;;;;;;;;;;;;;;19.69;52.27;96914.71;624199;227;65076;-71
2023/12/15 01:57:33;;;;;;;;;;;;;;;19.70;52.28;96927.00;624214;227;64590;-71
2023/12/15 02:00:06;;;;;;;;;;;;;;;19.69;52.29;96927.25;624185;227;63157;-72
2023/12/15 02:02:32;;;;;;;;;;;;;;;19.68;52.33;96926.45;623880;227;41798;-72
2023/12/15 02:04:59;;;;;;;;;;;;;;;19.68;52.32;96930.98;624264;227;62507;-72
2023/12/15 02:07:27;;;;;;;;;;;;;;;19.70;52.27;96929.66;624199;227;62691;-72
2023/12/15 02:09:54;;;;;;;;;;;;;;;19.67;52.34;96918.70;624190;227;63852;-72
2023/12/15 02:12:22;;;;;;;;;;;;;;;19.68;52.36;96915.78;624162;227;62468;-72
2023/12/15 02:14:50;;;;;;;;;;;;;;;19.67;52.35;96922.20;624193;227;63499;-72
2023/12/15 02:17:17;;;;;;;;;;;;;;;19.70;52.35;96929.66;624264;227;63868;-72
2023/12/15 02:19:45;;;;;;;;;;;;;;;19.70;52.38;96921.66;624189;227;62471;-72
2023/12/15 02:22:12;;;;;;;;;;;;;;;19.68;52.38;96920.33;624217;227;63109;-72
2023/12/15 02:24:40;;;;;;;;;;;;;;;19.69;52.40;96925.38;624129;227;62957;-72
2023/12/15 02:27:07;;;;;;;;;;;;;;;19.65;52.41;96920.83;624156;227;62431;-72
2023/12/15 02:29:34;;;;;;;;;;;;;;;19.70;52.33;96945.66;624246;227;65171;-72
2023/12/15 02:32:02;;;;;;;;;;;;;;;19.68;52.36;96945.11;624216;227;62998;-72
2023/12/15 02:34:30;;;;;;;;;;;;;;;19.69;52.32;96953.91;624233;227;62582;-72
2023/12/15 02:36:57;;;;;;;;;;;;;;;19.70;52.41;96956.32;624168;227;65236;-72
2023/12/15 02:39:25;;;;;;;;;;;;;;;19.70;52.40;96952.86;624156;227;66121;-72
2023/12/15 02:41:52;;;;;;;;;;;;;;;19.68;52.40;96949.65;624201;227;62524;-72
2023/12/15 02:44:19;;;;;;;;;;;;;;;19.70;52.43;96950.20;624241;227;63097;-72
2023/12/15 02:46:47;;;;;;;;;;;;;;;19.69;52.37;96957.37;624211;227;62925;-72
2023/12/15 02:49:14;;;;;;;;;;;;;;;19.69;52.33;96959.23;624175;227;63530;-75
2023/12/15 02:51:42;;;;;;;;;;;;;;;19.68;52.40;96966.44;624195;227;63065;-75
2023/12/15 02:54:09;;;;;;;;;;;;;;;19.69;52.33;96969.91;624208;227;62700;-75
2023/12/15 02:56:37;;;;;;;;;;;;;;;19.68;52.35;96978.98;624251;227;65230;-75
2023/12/15 02:59:04;;;;;;;;;;;;;;;19.66;52.37;96976.56;624171;227;65484;-72
2023/12/15 03:01:32;;;;;;;;;;;;;;;19.67;52.36;96978.18;624186;227;65604;-72
2023/12/15 03:03:59;;;;;;;;;;;;;;;19.67;52.42;96978.18;624213;227;62458;-72
2023/12/15 03:06:27;;;;;;;;;;;;;;;19.69;52.41;96980.56;624167;227;63102;-72
2023/12/15 03:08:55;;;;;;;;;;;;;;;19.69;52.36;96978.70;624210;227;63015;-72
2023/12/15 03:11:23;;;;;;;;;;;;;;;19.70;52.30;96987.52;624204;227;64595;-72
2023/12/15 03:13:50;;;;;;;;;;;;;;;19.69;52.41;96994.70;624170;227;66347;-72
2023/12/15 03:16:18;;;;;;;;;;;;;;;19.69;52.36;97000.03;624193;227;63038;-72
2023/12/15 03:18:45;;;;;;;;;;;;;;;19.68;52.38;97014.44;624237;227;64647;-72
2023/12/15 03:21:13;;;;;;;;;;;;;;;19.70;52.32;97022.98;624202;227;65035;-72
2023/12/15 03:23:40;;;;;;;;;;;;;;;19.67;52.31;97020.84;624161;227;63053;-72
2023/12/15 03:26:08;;;;;;;;;;;;;;;19.70;52.30;97024.84;624180;227;62434;-72
2023/12/15 03:28:35;;;;;;;;;;;;;;;19.67;52.34;97020.84;624154;227;63528;-72
2023/12/15 03:31:03;;;;;;;;;;;;;;;19.70;52.28;97025.64;624190;227;62856;-72
2023/12/15 03:33:31;;;;;;;;;;;;;;;19.69;52.30;97021.36;624208;227;63376;-72
2023/12/15 03:35:59;;;;;;;;;;;;;;;19.70;52.38;97028.31;624151;227;65736;-72
2023/12/15 03:38:26;;;;;;;;;;;;;;;19.70;52.34;97024.84;624194;227;65043;-72
2023/12/15 03:40:54;;;;;;;;;;;;;;;19.68;52.35;97032.30;624191;227;62476;-72
2023/12/15 03:43:21;;;;;;;;;;;;;;;19.69;52.37;97040.02;624202;227;62934;-71
2023/12/15 03:45:49;;;;;;;;;;;;;;;19.69;52.34;97040.02;624240;227;63003;-74
2023/12/15 03:48:16;;;;;;;;;;;;;;;19.70;52.35;97046.98;624151;227;62392;-74
2023/12/15 03:50:44;;;;;;;;;;;;;;;19.70;52.34;97052.31;624158;227;65465;-74
2023/12/15 03:53:11;;;;;;;;;;;;;;;19.71;52.34;97051.23;624187;227;65101;-74
2023/12/15 03:55:39;;;;;;;;;;;;;;;19.67;52.37;97042.17;623920;227;64559;-74
2023/12/15 03:58:06;;;;;;;;;;;;;;;19.69;52.40;97040.02;623954;227;63061;-73
2023/12/15 04:00:34;;;;;;;;;;;;;;;19.68;52.43;97046.42;624018;227;65015;-74
2023/12/15 04:03:01;;;;;;;;;;;;;;;19.67;52.36;97050.17;623919;227;64556;-74
2023/12/15 04:05:29;;;;;;;;;;;;;;;19.68;52.43;97057.09;623945;227;66423;-74
2023/12/15 04:07:56;;;;;;;;;;;;;;;19.69;52.46;97061.35;623903;227;65010;-74
2023/12/15 04:10:24;;;;;;;;;;;;;;;19.70;52.37;97062.17;623947;227;62556;-74
2023/12/15 04:12:51;;;;;;;;;;;;;;;19.67;52.39;97058.16;624219;227;63181;-74
2023/12/15 04:15:19;;;;;;;;;;;;;;;19.68;52.40;97065.09;624202;227;63246;-74
2023/12/15 04:17:47;;;;;;;;;;;;;;;19.71;52.45;97066.44;624181;227;64578;-73
2023/12/15 04:20:14;;;;;;;;;;;;;;;19.70;52.37;97062.97;623950;227;65458;-74
2023/12/15 04:22:42;;;;;;;;;;;;;;;19.70;52.41;97062.97;624012;227;65305;-74
2023/12/15 04:25:10;;;;;;;;;;;;;;;19.70;52.44;97067.52;619336;227;64463;-73
2023/12/15 04:27:37;;;;;;;;;;;;;;;19.68;52.45;97059.76;618723;229;63911;-74
2023/12/15 04:30:05;;;;;;;;;;;;;;;19.70;52.42;97075.51;618688;229;64643;-73
2023/12/15 04:32:33;;;;;;;;;;;;;;;19.69;52.44;97072.02;618799;229;65620;-73
2023/12/15 04:35:00;;;;;;;;;;;;;;;19.68;52.43;97072.30;618784;229;64802;-73
2023/12/15 04:37:27;;;;;;;;;;;;;;;19.71;52.39;97082.44;618815;229;64958;-74
2023/12/15 04:39:55;;;;;;;;;;;;;;;19.70;52.36;97078.97;618737;229;64592;-73
2023/12/15 04:42:22;;;;;;;;;;;;;;;19.71;52.41;97088.56;618666;229;66590;-74
2023/12/15 04:44:50;;;;;;;;;;;;;;;19.69;52.41;97088.02;618739;229;64611;-74
2023/12/15 04:47:17;;;;;;;;;;;;;;;19.70;52.41;97088.84;618716;229;65823;-74
2023/12/15 04:49:45;;;;;;;;;;;;;;;19.69;52.43;97081.88;618774;229;66085;-74
2023/12/15 04:52:12;;;;;;;;;;;;;;;19.70;52.40;97084.30;618799;229;64800;-74
2023/12/15 04:54:40;;;;;;;;;;;;;;;19.69;52.42;97085.34;618664;229;62555;-73
2023/12/15 04:57:07;;;;;;;;;;;;;;;19.67;52.39;97084.83;618551;229;63093;-74
2023/12/15 04:59:39;;;;;;;;;;;;;;;19.70;52.42;97094.97;618804;229;63028;-74
2023/12/15 05:02:04;;;;;;;;;;;;;;;19.71;52.42;97091.23;618927;228;62467;-74
2023/12/15 05:04:31;;;;;;;;;;;;;;;19.70;52.40;97100.30;618963;229;64843;-74
2023/12/15 05:06:59;;;;;;;;;;;;;;;19.70;52.46;97105.63;618932;229;66050;-74
2023/12/15 05:09:27;;;;;;;;;;;;;;;19.71;52.53;97107.23;618909;229;62511;-74
2023/12/15 05:11:55;;;;;;;;;;;;;;;19.71;52.47;97107.23;618949;229;65577;-72
2023/12/15 05:14:22;;;;;;;;;;;;;;;19.67;52.45;97092.83;618929;229;65382;-72
2023/12/15 05:16:50;;;;;;;;;;;;;;;19.70;52.44;97105.63;618998;229;64546;-72
2023/12/15 05:19:17;;;;;;;;;;;;;;;19.69;52.52;97104.01;618916;229;66373;-72
2023/12/15 05:21:45;;;;;;;;;;;;;;;19.69;52.47;97109.34;618949;229;65861;-72
2023/12/15 05:24:13;;;;;;;;;;;;;;;19.71;52.45;97122.43;618874;227;64597;-72
2023/12/15 05:26:40;;;;;;;;;;;;;;;19.68;52.43;97120.28;618947;229;65568;-71
2023/12/15 05:29:07;;;;;;;;;;;;;;;19.71;52.45;97128.56;618944;229;65705;-71
2023/12/15 05:31:35;;;;;;;;;;;;;;;19.72;52.39;97135.52;618922;229;64558;-71
2023/12/15 05:34:03;;;;;;;;;;;;;;;19.69;52.42;97128.00;618947;229;62996;-71
2023/12/15 05:36:30;;;;;;;;;;;;;;;19.70;52.40;97129.63;618910;229;63014;-72
2023/12/15 05:38:59;;;;;;;;;;;;;;;19.68;52.44;97134.41;618926;229;62437;-71
2023/12/15 05:41:26;;;;;;;;;;;;;;;19.69;52.41;97133.34;618959;229;66101;-72
2023/12/15 05:43:54;;;;;;;;;;;;;;;19.70;52.41;97145.63;618946;229;65197;-71
2023/12/15 05:46:21;;;;;;;;;;;;;;;19.70;52.42;97142.96;618941;229;64541;-72
2023/12/15 05:48:49;;;;;;;;;;;;;;;19.68;52.50;97145.08;618906;229;64995;-71
2023/12/15 05:51:16;;;;;;;;;;;;;;;19.71;52.43;97155.22;618902;229;65377;-71
2023/12/15 05:53:43;;;;;;;;;;;;;;;19.70;52.43;97164.30;618839;229;64839;-72
2023/12/15 05:56:11;;;;;;;;;;;;;;;19.70;52.37;97158.16;618711;229;65677;-72
2023/12/15 05:58:39;;;;;;;;;;;;;;;19.70;52.38;97166.16;616690;229;66305;-72
2023/12/15 06:01:06;;;;;;;;;;;;;;;19.72;52.43;97177.34;611746;232;64606;-72
2023/12/15 06:03:34;;;;;;;;;;;;;;;19.71;52.39;97175.75;611748;232;65491;-72
2023/12/15 06:06:01;;;;;;;;;;;;;;;19.70;52.41;97174.95;611634;232;63790;-71
2023/12/15 06:08:29;;;;;;;;;;;;;;;19.69;52.40;97184.00;611752;232;64529;-71
2023/12/15 06:10:56;;;;;;;;;;;;;;;19.70;52.35;97180.30;611753;230;65422;-71
2023/12/15 06:13:24;;;;;;;;;;;;;;;19.71;52.39;97183.75;611757;232;65003;-72
2023/12/15 06:15:51;;;;;;;;;;;;;;;19.70;52.30;97174.95;611746;232;64760;-71
2023/12/15 06:18:19;;;;;;;;;;;;;;;19.70;52.38;97174.95;611627;229;65378;-71
2023/12/15 06:20:46;;;;;;;;;;;;;;;19.69;52.40;97178.67;611799;232;65037;-72
2023/12/15 06:23:14;;;;;;;;;;;;;;;19.71;52.30;97176.55;612113;230;64642;-72
2023/12/15 06:25:42;;;;;;;;;;;;;;;19.69;52.42;97176.00;616812;230;63000;-72
2023/12/15 06:28:10;;;;;;;;;;;;;;;19.72;52.32;97191.51;616852;227;62907;-72
2023/12/15 06:30:37;;;;;;;;;;;;;;;19.70;52.33;97190.95;618670;226;62630;-72
2023/12/15 06:33:08;;;;;;;;;;;;;;;19.70;52.37;97208.83;627713;226;65416;-74
2023/12/15 06:35:35;;;;;;;;;;;;;;;19.70;52.40;97212.28;627751;226;62774;-74
2023/12/15 06:38:02;;;;;;;;;;;;;;;19.71;52.40;97211.22;627709;226;62511;-74
2023/12/15 06:40:31;;;;;;;;;;;;;;;19.71;52.43;97213.88;626676;226;64216;-75
2023/12/15 06:42:58;;;;;;;;;;;;;;;19.68;52.36;97214.40;622538;227;65527;-74
2023/12/15 06:45:26;;;;;;;;;;;;;;;19.72;52.36;97225.34;623745;227;64603;-75
2023/12/15 06:47:53;;;;;;;;;;;;;;;19.70;52.40;97216.82;623495;226;65650;-74
2023/12/15 06:50:21;;;;;;;;;;;;;;;19.70;52.30;97220.28;623774;226;66262;-74
2023/12/15 06:52:49;;;;;;;;;;;;;;;19.69;52.33;97218.66;624154;227;64603;-74
2023/12/15 06:55:16;;;;;;;;;;;;;;;19.71;52.40;97219.22;624165;227;63038;-74
2023/12/15 06:57:44;;;;;;;;;;;;;;;19.70;52.40;97230.95;624203;227;62967;-73
2023/12/15 07:00:12;;;;;;;;;;;;;;;19.71;52.35;97232.55;624173;227;62595;-74
2023/12/15 07:02:40;;;;;;;;;;;;;;;19.69;52.34;97242.66;617440;227;62946;-73
2023/12/15 07:05:07;;;;;;;;;;;;;;;19.69;52.34;97231.99;624107;227;63018;-76
2023/12/15 07:07:35;;;;;;;;;;;;;;;19.70;52.35;97233.62;624096;227;62837;-71
2023/12/15 07:10:03;;;;;;;;;;;;;;;19.70;52.37;97228.28;623692;227;65828;-72
2023/12/15 07:12:30;;;;;;;;;;;;;;;19.69;52.29;97226.66;624009;227;62976;-72
2023/12/15 07:14:58;;;;;;;;;;;;;;;19.70;52.24;97222.16;624035;227;63555;-73
2023/12/15 07:17:25;;;;;;;;;;;;;;;19.68;52.66;97229.60;624113;227;65806;-71
2023/12/15 07:19:53;;;;;;;;;;;;;;;19.67;51.67;97223.47;623957;227;65019;-73
2023/12/15 07:22:21;;;;;;;;;;;;;;;19.67;51.49;97223.47;624056;227;64391;-72
2023/12/15 07:24:48;;;;;;;;;;;;;;;19.67;51.41;97228.80;624074;227;64999;-71
2023/12/15 07:27:16;;;;;;;;;;;;;;;19.69;51.28;97234.66;624120;227;62925;-70
2023/12/15 07:29:44;;;;;;;;;;;;;;;19.70;51.25;97230.95;624073;227;64606;-69
2023/12/15 07:32:11;;;;;;;;;;;;;;;19.71;51.21;97239.75;624065;227;66229;-71
2023/12/15 07:34:38;;;;;;;;;;;;;;;19.70;51.16;97238.95;624125;227;65424;-72
2023/12/15 07:37:06;;;;;;;;;;;;;;;19.71;51.17;97251.21;624143;227;63316;-73
2023/12/15 07:39:34;;;;;;;;;;;;;;;19.72;51.21;97260.84;624069;227;63006;-70
2023/12/15 07:42:01;;;;;;;;;;;;;;;19.74;51.27;97257.90;624091;227;62970;-71
2023/12/15 07:44:29;;;;;;;;;;;;;;;19.76;51.32;97260.32;624036;227;64434;-71
2023/12/15 07:46:56;;;;;;;;;;;;;;;19.75;51.34;97262.16;624124;227;65224;-72
2023/12/15 07:49:24;;;;;;;;;;;;;;;19.73;51.37;97274.97;624196;227;62682;-70
2023/12/15 07:51:52;;;;;;;;;;;;;;;19.76;51.32;97284.32;624015;227;62476;-71
2023/12/15 07:54:19;;;;;;;;;;;;;;;19.73;51.29;97286.44;624047;227;63132;-72
2023/12/15 07:56:47;;;;;;;;;;;;;;;19.74;51.24;97290.70;624123;227;65503;-71
2023/12/15 07:59:15;;;;;;;;;;;;;;;19.76;51.25;97298.45;624073;227;62543;-71
2023/12/15 08:01:43;;;;;;;;;;;;;;;19.77;51.26;97302.72;624133;227;65192;-71
2023/12/15 08:04:11;;;;;;;;;;;;;;;19.76;51.25;97300.32;623879;227;62971;-72
2023/12/15 08:06:38;;;;;;;;;;;;;;;19.76;51.20;97305.66;624097;227;62556;-74
2023/12/15 08:09:06;;;;;;;;;;;;;;;19.77;51.15;97312.59;624108;227;65195;-74
2023/12/15 08:11:33;;;;;;;;;;;;;;;19.77;51.10;97323.25;624187;227;65033;-72
2023/12/15 08:14:03;;;;;;;;;;;;;;;19.75;51.04;97315.49;624085;227;64641;-73
2023/12/15 08:16:30;;;;;;;;;;;;;;;19.76;51.11;97321.66;624113;227;64929;-72
2023/12/15 08:18:58;;;;;;;;;;;;;;;19.77;51.11;97323.25;624127;227;65004;-73
2023/12/15 08:21:26;;;;;;;;;;;;;;;19.76;51.06;97330.45;620939;227;64806;-72
2023/12/15 08:23:53;;;;;;;;;;;;;;;19.77;50.96;97331.25;618506;227;65644;-72
2023/12/15 08:26:28;;;;;;;;;;;;;;;19.75;50.92;97334.16;616889;229;63798;-72
2023/12/15 08:28:55;;;;;;;;;;;;;;;19.73;50.86;97331.77;619789;229;63539;-72
2023/12/15 08:31:24;;;;;;;;;;;;;;;19.76;50.85;97333.12;618938;229;62976;-72
2023/12/15 08:33:54;;;;;;;;;;;;;;;19.74;50.83;97344.03;618853;229;66112;-71
2023/12/15 08:36:21;;;;;;;;;;;;;;;19.79;50.82;97358.48;618931;229;62556;-72
2023/12/15 08:38:49;;;;;;;;;;;;;;;19.80;50.83;97357.41;618970;229;65013;-72
2023/12/15 08:41:16;;;;;;;;;;;;;;;19.80;50.87;97368.88;618918;229;62370;-73
2023/12/15 08:43:44;;;;;;;;;;;;;;;19.79;50.98;97369.14;618982;229;64529;-74
2023/12/15 08:46:11;;;;;;;;;;;;;;;19.80;51.05;97373.41;618871;229;64899;-74
2023/12/15 08:48:39;;;;;;;;;;;;;;;19.78;51.09;97373.67;618442;229;62759;-73
2023/12/15 08:51:06;;;;;;;;;;;;;;;19.80;51.17;97376.08;618988;229;62444;-73
2023/12/15 08:53:34;;;;;;;;;;;;;;;19.80;51.22;97376.88;618944;229;62686;-73
2023/12/15 08:56:02;;;;;;;;;;;;;;;19.82;51.25;97389.97;618856;229;62597;-71
2023/12/15 08:58:29;;;;;;;;;;;;;;;19.81;51.25;97389.17;618909;229;64560;-72
2023/12/15 09:00:57;;;;;;;;;;;;;;;19.82;51.18;97387.30;618917;229;64926;-74
2023/12/15 09:03:24;;;;;;;;;;;;;;;19.82;51.05;97396.10;618872;229;62613;-74
2023/12/15 09:05:52;;;;;;;;;;;;;;;19.81;50.97;97394.50;618884;229;62442;-72
2023/12/15 09:08:19;;;;;;;;;;;;;;;19.81;50.96;97407.04;618817;229;62978;-73
2023/12/15 09:10:50;;;;;;;;;;;;;;;19.82;51.00;97404.10;618801;229;63256;-73
2023/12/15 09:13:17;;;;;;;;;;;;;;;19.83;51.02;97405.70;618850;228;62412;-74
2023/12/15 09:15:45;;;;;;;;;;;;;;;19.80;50.98;97400.08;618908;229;63235;-74
2023/12/15 09:18:12;;;;;;;;;;;;;;;19.84;51.02;97401.19;618814;229;65011;-72
2023/12/15 09:20:40;;;;;;;;;;;;;;;19.84;51.04;97406.53;618909;229;64547;-74
2023/12/15 09:23:09;;;;;;;;;;;;;;;19.81;50.98;97396.38;618804;227;65491;-71
2023/12/15 09:25:37;;;;;;;;;;;;;;;19.80;50.95;97390.20;618845;229;63041;-75
2023/12/15 09:28:05;;;;;;;;;;;;;;;19.84;50.92;97403.86;618863;229;64377;-74
2023/12/15 09:30:33;;;;;;;;;;;;;;;19.83;50.90;97395.03;618845;229;62850;-74
2023/12/15 09:33:00;;;;;;;;;;;;;;;19.84;50.86;97393.20;618885;229;63050;-72
2023/12/15 09:35:28;;;;;;;;;;;;;;;19.83;50.90;97397.70;618888;229;63418;-72
2023/12/15 09:37:55;;;;;;;;;;;;;;;19.83;50.70;97400.36;618898;229;64430;-73
2023/12/15 09:40:23;;;;;;;;;;;;;;;19.83;50.51;97394.23;618727;229;62923;-71
2023/12/15 09:42:51;;;;;;;;;;;;;;;19.83;50.39;97403.03;618869;229;64583;-73
2023/12/15 09:45:18;;;;;;;;;;;;;;;19.84;50.35;97401.19;618873;229;63029;-73
2023/12/15 09:47:47;;;;;;;;;;;;;;;19.83;50.34;97397.70;618906;229;63058;-71
2023/12/15 09:50:16;;;;;;;;;;;;;;;19.81;50.41;97399.03;617759;229;64824;-72
2023/12/15 09:52:44;;;;;;;;;;;;;;;19.83;50.48;97403.03;611752;229;65671;-72
2023/12/15 09:55:11;;;;;;;;;;;;;;;19.84;50.58;97407.33;612255;231;61995;-72
2023/12/15 09:57:40;;;;;;;;;;;;;;;19.84;50.61;97404.66;611733;232;62467;-72
2023/12/15 10:00:10;;;;;;;;;;;;;;;19.84;50.64;97409.20;612107;231;65499;-71
2023/12/15 10:02:42;;;;;;;;;;;;;;;19.83;50.64;97416.37;611737;232;63192;-72
2023/12/15 10:05:10;;;;;;;;;;;;;;;19.83;50.69;97419.03;612080;231;64828;-71
2023/12/15 10:07:38;;;;;;;;;;;;;;;19.84;50.68;97411.86;613617;229;63011;-72
2023/12/15 10:10:06;;;;;;;;;;;;;;;19.85;50.67;97416.13;612161;229;64880;-71
2023/12/15 10:12:33;;;;;;;;;;;;;;;19.85;50.68;97424.92;611775;232;63354;-71
2023/12/15 10:15:01;;;;;;;;;;;;;;;19.84;50.64;97422.53;612196;231;65578;-69
2023/12/15 10:17:28;;;;;;;;;;;;;;;19.82;50.66;97417.44;611735;232;62739;-72
2023/12/15 10:20:09;;;;;;;;;;;;;;;19.85;50.63;97432.13;612176;231;62685;-71
2023/12/15 10:22:38;;;;;;;;;;;;;;;19.85;50.62;97429.46;611722;229;65381;-70
2023/12/15 10:25:22;;;;;;;;;;;;;;;19.86;50.60;97431.06;612740;231;65553;-71
2023/12/15 10:27:51;;;;;;;;;;;;;;;19.85;50.55;97432.13;616775;230;64579;-72
2023/12/15 10:30:19;;;;;;;;;;;;;;;19.84;50.51;97428.66;616753;230;65582;-71
2023/12/15 10:32:47;;;;;;;;;;;;;;;19.84;50.54;97442.00;616905;230;65032;-71
2023/12/15 10:35:16;;;;;;;;;;;;;;;19.83;50.57;97439.57;616845;230;64714;-70
2023/12/15 10:37:44;;;;;;;;;;;;;;;19.86;50.59;97439.06;616884;230;65456;-71
2023/12/15 10:40:12;;;;;;;;;;;;;;;19.85;50.56;97443.59;616778;230;66152;-72
2023/12/15 10:42:41;;;;;;;;;;;;;;;19.84;50.56;97438.53;616876;230;64361;-72
2023/12/15 10:45:09;;;;;;;;;;;;;;;19.87;50.55;97440.69;618797;227;65028;-72
2023/12/15 10:47:37;;;;;;;;;;;;;;;19.83;50.56;97435.03;616903;230;65221;-71
2023/12/15 10:50:07;;;;;;;;;;;;;;;19.84;50.61;97441.20;616779;230;62514;-70
2023/12/15 10:52:36;;;;;;;;;;;;;;;19.84;50.59;97446.53;616794;230;63558;-69
2023/12/15 10:55:04;;;;;;;;;;;;;;;19.87;50.59;97454.03;616857;230;62996;-69
2023/12/15 10:57:31;;;;;;;;;;;;;;;19.87;50.62;97460.16;616762;230;62769;-69
2023/12/15 11:00:02;;;;;;;;;;;;;;;19.87;50.64;97454.03;616699;230;65493;-69
2023/12/15 11:02:31;;;;;;;;;;;;;;;19.88;50.64;97466.30;616926;230;62692;-69
2023/12/15 11:05:02;;;;;;;;;;;;;;;19.89;50.62;97465.25;617016;230;64812;-70
2023/12/15 11:07:30;;;;;;;;;;;;;;;19.87;50.66;97462.03;617104;230;64097;-69
2023/12/15 11:09:59;;;;;;;;;;;;;;;19.87;50.70;97465.49;617004;230;65053;-69
2023/12/15 11:12:31;;;;;;;;;;;;;;;19.87;50.75;97462.83;616996;230;65299;-70
2023/12/15 11:15:07;;;;;;;;;;;;;;;19.87;50.74;97457.50;617046;230;63034;-70
2023/12/15 11:17:32;;;;;;;;;;;;;;;19.87;50.78;97462.03;616903;230;63087;-69
2023/12/15 11:20:06;;;;;;;;;;;;;;;19.87;50.82;97451.36;617078;230;62634;-70
2023/12/15 11:22:44;;;;;;;;;;;;;;;19.88;50.81;97463.63;617012;230;66142;-70
2023/12/15 11:25:12;;;;;;;;;;;;;;;19.88;50.81;97468.96;612323;230;66163;-69
2023/12/15 11:28:00;;;;;;;;;;;;;;;19.86;50.83;97466.56;615200;230;62480;-68
2023/12/15 11:30:28;;;;;;;;;;;;;;;19.86;50.83;97463.90;615244;230;64213;-71
2023/12/15 11:32:56;;;;;;;;;;;;;;;19.88;50.81;97471.63;615192;230;64724;-70
2023/12/15 11:35:30;;;;;;;;;;;;;;;19.89;50.85;97471.39;615282;230;64675;-70
2023/12/15 11:37:58;;;;;;;;;;;;;;;19.88;50.86;97480.43;615279;230;63207;-71
2023/12/15 11:40:30;;;;;;;;;;;;;;;19.88;50.88;97495.63;615163;230;65594;-72
2023/12/15 11:42:58;;;;;;;;;;;;;;;19.89;50.87;97491.93;615274;230;62458;-70
2023/12/15 11:45:31;;;;;;;;;;;;;;;19.88;50.86;97480.43;615251;230;62956;-70
2023/12/15 11:47:55;;;;;;;;;;;;;;;19.87;50.88;97472.70;615118;229;62734;-71
2023/12/15 11:50:23;;;;;;;;;;;;;;;19.85;50.83;97475.61;615219;230;64514;-72
2023/12/15 11:52:51;;;;;;;;;;;;;;;19.87;50.70;97480.70;615246;230;63121;-70
2023/12/15 11:55:20;;;;;;;;;;;;;;;19.87;50.49;97478.03;615235;228;65098;-71
2023/12/15 11:57:48;;;;;;;;;;;;;;;19.88;50.31;97483.09;615091;230;64661;-71
2023/12/15 12:00:17;;;;;;;;;;;;;;;19.87;50.18;97478.83;614885;230;62765;-71
2023/12/15 12:02:46;;;;;;;;;;;;;;;19.88;50.09;97479.63;615173;230;65122;-71
2023/12/15 12:05:14;;;;;;;;;;;;;;;19.87;50.01;97470.83;615122;230;65759;-70
2023/12/15 12:07:42;;;;;;;;;;;;;;;19.87;49.95;97483.37;614331;230;65543;-70
2023/12/15 12:10:10;;;;;;;;;;;;;;;19.88;49.89;97482.30;613969;230;66134;-70
2023/12/15 12:12:37;;;;;;;;;;;;;;;19.84;49.88;97484.67;613939;230;63490;-70
2023/12/15 12:15:07;;;;;;;;;;;;;;;19.88;49.81;97498.30;613872;230;66794;-71
2023/12/15 12:17:35;;;;;;;;;;;;;;;19.88;49.81;97492.97;614893;230;65191;-72
2023/12/15 12:20:12;;;;;;;;;;;;;;;19.86;49.80;97501.23;614303;230;64783;-73
2023/12/15 12:22:40;;;;;;;;;;;;;;;19.89;50.52;97499.94;614008;230;65456;-72
2023/12/15 12:25:09;;;;;;;;;;;;;;;19.88;49.95;97495.63;615156;229;65217;-71
2023/12/15 12:27:37;;;;;;;;;;;;;;;19.88;49.96;97490.30;615251;230;62696;-72
2023/12/15 12:30:10;;;;;;;;;;;;;;;19.89;50.04;97497.27;615159;230;65510;-71
2023/12/15 12:32:35;;;;;;;;;;;;;;;19.87;50.08;97494.84;614798;229;62996;-70
2023/12/15 12:35:03;;;;;;;;;;;;;;;19.89;50.10;97519.41;615233;230;64687;-71
2023/12/15 12:37:37;;;;;;;;;;;;;;;19.89;50.10;97523.94;615183;230;63014;-71
2023/12/15 12:40:00;;;;;;;;;;;;;;;19.90;50.08;97530.87;614991;230;62943;-72
2023/12/15 12:42:28;;;;;;;;;;;;;;;19.89;50.09;97532.74;615225;230;62369;-72
2023/12/15 12:44:56;;;;;;;;;;;;;;;19.88;50.08;97528.45;615205;230;63059;-72
2023/12/15 12:47:23;;;;;;;;;;;;;;;19.88;50.06;97527.64;615294;230;62561;-72
2023/12/15 12:49:52;;;;;;;;;;;;;;;19.89;50.02;97535.41;615190;230;65764;-71
2023/12/15 12:52:20;;;;;;;;;;;;;;;19.90;50.01;97541.55;615234;230;62686;-70